Time;durP1;ratioP1;P1;durP2;ratioP2;P2;SDS_P1;SDS_P2;PMS_P1;PMS_P2;Temp;Humidity;BMP_temperature;BMP_pressure;BME280_temperature;BME280_humidity;BME280_pressure;Samples;Min_cycle;Max_cycle;Signal;HPM_P1;HPM_P2
2023/01/12 00:00:48;;;;;;;5.58;2.64;;;;;;;-6.57;59.28;102654.41;454839;116;922522;-71
2023/01/12 00:01:51;;;;;;;4.42;2.81;;;;;;;-6.57;59.10;102655.28;454800;116;922474;-72
2023/01/12 00:02:54;;;;;;;4.74;2.86;;;;;;;-6.59;59.19;102662.42;454812;116;922513;-72
2023/01/12 00:03:57;;;;;;;4.39;2.94;;;;;;;-6.60;59.12;102660.68;454801;116;922664;-72
2023/01/12 00:05:01;;;;;;;4.44;2.62;;;;;;;-6.61;59.14;102656.29;454811;115;922464;-73
2023/01/12 00:06:06;;;;;;;3.29;2.51;;;;;;;-6.61;59.16;102658.08;454830;116;922518;-72
2023/01/12 00:07:10;;;;;;;5.55;3.70;;;;;;;-6.62;59.22;102662.55;454633;116;922441;-72
2023/01/12 00:08:13;;;;;;;4.96;3.56;;;;;;;-6.62;59.31;102656.38;454126;116;922896;-71
2023/01/12 00:09:16;;;;;;;4.53;4.08;;;;;;;-6.64;59.21;102656.41;454789;116;922700;-72
2023/01/12 00:10:19;;;;;;;4.92;4.42;;;;;;;-6.63;59.26;102657.28;444485;116;922791;-70
2023/01/12 00:11:22;;;;;;;4.97;4.27;;;;;;;-6.64;59.28;102659.06;442858;120;922494;-72
2023/01/12 00:12:25;;;;;;;3.92;3.48;;;;;;;-6.64;59.33;102660.84;442866;120;922562;-72
2023/01/12 00:13:30;;;;;;;5.74;3.69;;;;;;;-6.63;59.42;102663.45;442877;120;923007;-72
2023/01/12 00:14:37;;;;;;;4.46;3.86;;;;;;;-6.64;59.31;102661.72;443779;115;923190;-71
2023/01/12 00:17:02;;;;;;;3.98;3.54;;;;;;;-6.66;59.40;102660.89;454568;116;922695;-71
2023/01/12 00:18:05;;;;;;;5.32;3.86;;;;;;;-6.67;59.45;102651.20;454698;116;922441;-72
2023/01/12 00:19:14;;;;;;;4.26;3.74;;;;;;;-6.67;59.61;102664.46;454834;116;922412;-72
2023/01/12 00:20:17;;;;;;;6.36;4.76;;;;;;;-6.67;59.66;102656.50;454680;115;922622;-73
2023/01/12 00:21:20;;;;;;;6.59;4.19;;;;;;;-6.65;59.68;102664.42;454886;116;922596;-72
2023/01/12 00:22:23;;;;;;;6.21;4.61;;;;;;;-6.65;59.62;102665.29;454858;116;922526;-71
2023/01/12 00:23:28;;;;;;;7.04;3.21;;;;;;;-6.63;59.67;102671.41;454838;116;922946;-72
2023/01/12 00:24:34;;;;;;;4.63;3.12;;;;;;;-6.61;59.81;102668.69;456585;115;922560;-71
2023/01/12 00:25:37;;;;;;;8.37;3.02;;;;;;;-6.61;59.68;102666.03;454603;116;922670;-71
2023/01/12 00:26:40;;;;;;;4.37;3.08;;;;;;;-6.61;59.75;102661.59;452853;116;922748;-72
2023/01/12 00:27:43;;;;;;;5.46;2.64;;;;;;;-6.59;59.92;102670.37;452612;117;922819;-71
2023/01/12 00:28:46;;;;;;;5.09;2.41;;;;;;;-6.56;59.93;102667.60;452622;117;922462;-71
2023/01/12 00:29:49;;;;;;;4.16;2.44;;;;;;;-6.54;59.90;102670.21;452966;117;922506;-71
2023/01/12 00:30:52;;;;;;;3.74;2.66;;;;;;;-6.53;59.92;102666.64;453484;117;922573;-72
2023/01/12 00:31:57;;;;;;;3.34;2.54;;;;;;;-6.52;59.85;102671.91;453594;117;922513;-72
2023/01/12 00:33:00;;;;;;;3.98;2.63;;;;;;;-6.50;59.85;102663.86;453403;117;922805;-72
2023/01/12 00:34:03;;;;;;;3.57;2.22;;;;;;;-6.49;59.89;102665.60;453546;117;922904;-72
2023/01/12 00:35:07;;;;;;;5.17;2.56;;;;;;;-6.48;59.87;102668.21;453501;117;922498;-72
2023/01/12 00:36:13;;;;;;;2.96;2.59;;;;;;;-6.46;60.02;102657.55;453420;117;922893;-71
2023/01/12 00:37:16;;;;;;;4.35;2.66;;;;;;;-6.46;59.99;102666.38;453306;117;931184;-72
2023/01/12 00:38:19;;;;;;;3.67;2.34;;;;;;;-6.45;59.99;102660.13;453568;117;922824;-72
2023/01/12 00:39:22;;;;;;;5.33;3.04;;;;;;;-6.45;59.99;102665.44;453549;117;922940;-71
2023/01/12 00:40:25;;;;;;;6.52;2.72;;;;;;;-6.43;59.88;102660.95;453571;117;922523;-73
2023/01/12 00:45:32;;;;;;;4.56;2.51;;;;;;;-6.35;60.01;102665.98;453660;114;922828;-70
2023/01/12 00:46:35;;;;;;;4.58;2.98;;;;;;;-6.34;60.04;102673.03;454764;116;922508;-71
2023/01/12 00:47:40;;;;;;;4.21;2.84;;;;;;;-6.33;60.04;102672.09;456457;115;922425;-72
2023/01/12 00:48:43;;;;;;;3.77;2.32;;;;;;;-6.31;60.04;102678.22;460781;115;923026;-72
2023/01/12 00:49:46;;;;;;;4.08;2.61;;;;;;;-6.28;60.07;102672.78;457353;115;922455;-71
2023/01/12 00:50:49;;;;;;;4.62;2.69;;;;;;;-6.25;60.15;102666.52;455805;114;922546;-72
2023/01/12 00:51:52;;;;;;;5.69;2.64;;;;;;;-6.24;60.04;102674.42;462885;114;922657;-72
2023/01/12 00:52:55;;;;;;;4.17;2.46;;;;;;;-6.22;60.15;102674.34;462903;114;922939;-71
2023/01/12 00:54:03;;;;;;;6.06;2.61;;;;;;;-6.19;60.17;102671.59;462823;114;922977;-72
2023/01/12 00:55:03;;;;;;;4.49;2.18;;;;;;;-6.16;60.04;102676.78;459421;114;922715;-72
2023/01/12 00:56:07;;;;;;;3.83;2.36;;;;;;;-6.14;60.18;102672.29;452017;116;922560;-72
2023/01/12 00:57:12;;;;;;;3.79;2.11;;;;;;;-6.11;60.07;102669.51;445855;119;924932;-72
2023/01/12 00:58:15;;;;;;;4.17;2.21;;;;;;;-6.08;60.12;102678.25;445718;119;922515;-72
2023/01/12 00:59:18;;;;;;;6.46;2.35;;;;;;;-6.07;59.96;102671.15;445872;119;923325;-71
2023/01/12 01:00:22;;;;;;;3.81;2.23;;;;;;;-6.05;60.02;102669.28;453969;115;922887;-70
2023/01/12 01:01:25;;;;;;;2.78;2.34;;;;;;;-6.03;59.86;102670.10;454769;116;922549;-72
2023/01/12 01:02:28;;;;;;;5.79;2.51;;;;;;;-6.02;59.96;102669.19;454688;116;930330;-71
2023/01/12 01:03:32;;;;;;;2.80;2.42;;;;;;;-6.00;59.77;102675.28;459930;114;922469;-72
2023/01/12 01:04:35;;;;;;;3.92;2.83;;;;;;;-6.00;59.84;102678.80;461617;114;922485;-72
2023/01/12 01:05:38;;;;;;;3.87;2.22;;;;;;;-6.00;59.79;102678.80;457531;115;930770;-72
2023/01/12 01:06:41;;;;;;;3.84;2.26;;;;;;;-5.99;59.67;102671.71;458360;115;922515;-72
2023/01/12 01:07:46;;;;;;;5.22;2.63;;;;;;;-5.99;59.75;102677.02;456975;115;922459;-71
2023/01/12 01:08:49;;;;;;;2.55;2.31;;;;;;;-6.00;59.66;102677.94;447166;114;922883;-72
2023/01/12 01:09:52;;;;;;;2.99;2.11;;;;;;;-5.99;59.60;102679.67;454207;114;922529;-71
2023/01/12 01:11:04;;;;;;;2.87;2.39;;;;;;;-5.99;59.73;102675.23;453777;116;922729;-71
2023/01/12 01:12:07;;;;;;;2.68;1.96;;;;;;;-5.98;59.70;102670.79;450621;117;922480;-71
2023/01/12 01:13:10;;;;;;;5.47;2.42;;;;;;;-5.97;59.69;102664.56;450883;117;922531;-72
2023/01/12 01:14:13;;;;;;;5.28;2.49;;;;;;;-5.98;59.52;102668.14;450870;117;922929;-72
2023/01/12 01:15:16;;;;;;;3.65;2.47;;;;;;;-5.98;59.60;102665.48;458370;114;922454;-71
2023/01/12 01:16:19;;;;;;;5.16;1.91;;;;;;;-5.99;59.50;102669.05;462855;114;922552;-72
2023/01/12 01:17:21;;;;;;;10.16;2.32;;;;;;;-6.01;59.49;102677.06;462811;114;922519;-72
2023/01/12 01:18:24;;;;;;;4.63;1.94;;;;;;;-6.01;59.50;102673.58;461673;114;922478;-72
2023/01/12 01:19:27;;;;;;;3.21;2.04;;;;;;;-6.01;59.62;102665.61;460391;115;922492;-71
2023/01/12 01:20:35;;;;;;;3.96;2.21;;;;;;;-6.01;59.67;102676.23;452290;116;922622;-71
2023/01/12 01:21:35;;;;;;;2.95;2.34;;;;;;;-6.00;59.62;102678.80;455668;116;922532;-72
2023/01/12 01:22:38;;;;;;;4.62;2.09;;;;;;;-5.98;59.66;102665.48;457548;114;922485;-71
2023/01/12 01:23:41;;;;;;;3.22;2.00;;;;;;;-5.97;59.67;102683.16;446806;117;923254;-71
2023/01/12 01:24:46;;;;;;;3.62;2.20;;;;;;;-5.95;59.65;102671.53;450044;116;922545;-70
2023/01/12 01:25:50;;;;;;;2.81;2.31;;;;;;;-5.93;59.62;102674.14;459778;115;930980;-71
2023/01/12 01:26:53;;;;;;;2.97;2.47;;;;;;;-5.92;59.66;102682.05;449950;117;930473;-71
2023/01/12 01:27:56;;;;;;;2.83;2.13;;;;;;;-5.91;59.76;102666.98;446427;116;930485;-72
2023/01/12 01:28:59;;;;;;;5.30;2.62;;;;;;;-5.91;59.83;102673.17;455314;116;922513;-72
2023/01/12 01:30:02;;;;;;;3.61;2.33;;;;;;;-5.89;59.77;102675.74;459305;114;922531;-72
2023/01/12 01:31:07;;;;;;;5.36;2.32;;;;;;;-5.87;59.89;102678.34;460445;114;922548;-73
2023/01/12 01:32:10;;;;;;;4.37;2.47;;;;;;;-5.86;60.08;102677.40;460038;114;922450;-72
2023/01/12 01:33:13;;;;;;;3.79;2.30;;;;;;;-5.85;60.11;102679.14;457525;115;922565;-70
2023/01/12 01:34:16;;;;;;;5.12;2.17;;;;;;;-5.87;60.08;102676.56;457436;116;922552;-72
2023/01/12 01:35:19;;;;;;;2.96;2.23;;;;;;;-5.87;60.15;102679.22;458950;114;930469;-71
2023/01/12 01:36:22;;;;;;;2.82;1.98;;;;;;;-5.88;60.26;102677.48;456703;116;923006;-70
2023/01/12 01:37:27;;;;;;;4.64;2.37;;;;;;;-5.88;60.39;102677.48;454638;114;922625;-71
2023/01/12 01:38:31;;;;;;;3.87;1.95;;;;;;;-5.91;60.34;102673.17;453227;117;922527;-71
2023/01/12 01:39:34;;;;;;;3.53;1.91;;;;;;;-5.93;60.37;102675.00;456562;115;930491;-71
2023/01/12 01:40:40;;;;;;;3.58;1.84;;;;;;;-5.94;60.57;102675.92;454438;116;922508;-72
2023/01/12 01:41:43;;;;;;;3.02;1.99;;;;;;;-5.97;60.55;102667.22;457298;116;922500;-72
2023/01/12 01:42:46;;;;;;;3.62;2.02;;;;;;;-5.97;60.83;102673.40;457427;116;922400;-72
2023/01/12 01:43:53;;;;;;;3.39;2.22;;;;;;;-5.97;60.92;102673.40;457456;115;922494;-70
2023/01/12 01:45:00;;;;;;;3.59;1.87;;;;;;;-5.97;61.06;102672.53;457794;114;922927;-72
2023/01/12 01:46:06;;;;;;;3.18;2.12;;;;;;;-5.96;61.06;102674.27;457089;116;922518;-72
2023/01/12 01:47:19;;;;;;;4.57;2.61;;;;;;;-5.97;61.13;102672.53;457335;114;922497;-70
2023/01/12 01:48:23;;;;;;;4.33;2.99;;;;;;;-5.96;61.28;102675.14;457346;114;922485;-72
2023/01/12 01:49:44;;;;;;;6.16;3.02;;;;;;;-5.96;61.37;102669.83;457422;115;922462;-71
2023/01/12 01:50:51;;;;;;;3.59;2.77;;;;;;;-5.95;61.39;102675.97;455317;116;922974;-70
2023/01/12 01:51:58;;;;;;;6.59;3.22;;;;;;;-5.95;61.44;102686.59;456394;116;922550;-70
2023/01/12 01:53:07;;;;;;;4.12;3.09;;;;;;;-5.96;61.51;102682.23;455629;114;923045;-72
2023/01/12 01:54:11;;;;;;;4.79;2.34;;;;;;;-5.95;61.59;102681.28;457800;114;922954;-73
2023/01/12 01:55:17;;;;;;;4.14;2.41;;;;;;;-5.95;61.63;102676.84;461060;113;922079;-71
2023/01/12 01:56:29;;;;;;;4.59;2.32;;;;;;;-5.94;61.78;102677.70;456690;114;922370;-71
2023/01/12 01:57:36;;;;;;;2.97;2.10;;;;;;;-5.91;61.83;102675.83;462609;114;922388;-71
2023/01/12 01:58:42;;;;;;;3.43;1.96;;;;;;;-5.91;61.94;102670.52;458564;114;923021;-70
2023/01/12 01:59:49;;;;;;;3.64;2.32;;;;;;;-5.90;61.99;102674.88;457077;115;922240;-70
2023/01/12 02:00:52;;;;;;;4.79;2.27;;;;;;;-5.88;62.03;102666.86;461216;114;922349;-71
2023/01/12 02:01:55;;;;;;;2.53;2.04;;;;;;;-5.86;62.05;102664.98;463886;114;922342;-72
2023/01/12 02:03:01;;;;;;;5.08;2.19;;;;;;;-5.84;62.02;102668.42;462722;114;923014;-71
2023/01/12 02:04:06;;;;;;;4.28;2.03;;;;;;;-5.82;62.00;102668.38;453155;117;922664;-72
2023/01/12 02:05:10;;;;;;;3.50;2.18;;;;;;;-5.82;62.06;102666.59;457101;114;923384;-72
2023/01/12 02:06:14;;;;;;;3.06;2.21;;;;;;;-5.80;62.13;102667.41;457288;115;930572;-72
2023/01/12 02:07:17;;;;;;;2.86;2.50;;;;;;;-5.78;62.24;102659.36;457435;114;922732;-71
2023/01/12 02:08:55;;;;;;;5.21;2.78;;;;;;;-5.77;62.14;102663.75;457452;116;930272;-71
2023/01/12 02:09:59;;;;;;;3.09;2.12;;;;;;;-5.77;62.34;102664.62;455639;115;922557;-72
2023/01/12 02:11:02;;;;;;;4.48;2.51;;;;;;;-5.75;62.42;102660.13;455415;116;922555;-71
2023/01/12 02:16:22;;;;;;;5.12;2.51;;;;;;;-5.83;62.61;102653.36;462272;114;922626;-72
2023/01/12 02:17:54;;;;;;;3.82;2.06;;;;;;;-5.86;62.76;102657.02;457201;114;923277;-72
2023/01/12 02:19:04;;;;;;;2.62;2.06;;;;;;;-5.90;62.92;102650.97;457439;114;922503;-72
2023/01/12 02:20:16;;;;;;;4.89;2.42;;;;;;;-5.92;63.19;102646.66;460403;114;922607;-69
2023/01/12 02:21:26;;;;;;;3.96;2.04;;;;;;;-5.93;63.34;102653.76;462646;114;922819;-71
2023/01/12 02:22:35;;;;;;;4.83;1.97;;;;;;;-5.95;63.42;102649.41;463007;114;922631;-71
2023/01/12 02:23:54;;;;;;;3.39;1.88;;;;;;;-5.95;63.47;102646.76;456124;116;922496;-72
2023/01/12 02:25:22;;;;;;;4.06;2.03;;;;;;;-5.95;63.66;102652.06;452748;115;922633;-71
2023/01/12 02:26:57;;;;;;;3.86;2.25;;;;;;;-5.95;63.63;102652.06;462346;113;922489;-72
2023/01/12 02:28:28;;;;;;;6.26;1.91;;;;;;;-5.98;63.71;102647.76;446754;118;923242;-72
2023/01/12 02:29:53;;;;;;;4.36;2.21;;;;;;;-6.03;63.65;102647.07;451112;114;922690;-71
2023/01/12 02:31:33;;;;;;;4.70;2.79;;;;;;;-6.08;63.96;102648.17;460929;114;922470;-71
2023/01/12 02:32:42;;;;;;;3.04;1.94;;;;;;;-6.10;64.13;102650.00;458559;114;922593;-71
2023/01/12 02:34:03;;;;;;;4.86;1.76;;;;;;;-6.15;64.25;102642.22;457268;114;922499;-73
2023/01/12 02:35:19;;;;;;;10.18;2.66;;;;;;;-6.17;64.22;102648.49;433041;121;922692;-70
2023/01/12 02:36:38;;;;;;;3.04;2.09;;;;;;;-6.09;64.52;102641.13;488059;107;925819;-71
2023/01/12 02:38:01;;;;;;;7.98;2.21;;;;;;;-6.21;64.47;102645.09;467815;111;922805;-72
2023/01/12 02:39:20;;;;;;;3.86;1.93;;;;;;;-6.21;64.49;102644.23;453009;117;922585;-70
2023/01/12 02:40:26;;;;;;;3.66;2.15;;;;;;;-6.23;64.49;102638.13;448199;118;923020;-74
2023/01/12 02:43:12;;;;;;;3.93;2.06;;;;;;;-6.25;64.69;102640.84;450311;118;923167;-71
2023/01/12 02:44:22;;;;;;;2.28;1.92;;;;;;;-6.25;64.69;102639.97;440023;120;922566;-72
2023/01/12 02:45:41;;;;;;;3.48;1.92;;;;;;;-6.26;64.86;102639.09;448324;118;922862;-72
2023/01/12 02:46:47;;;;;;;1.88;1.70;;;;;;;-6.25;64.96;102637.31;460356;114;922596;-71
2023/01/12 02:48:13;;;;;;;3.22;1.92;;;;;;;-6.25;64.87;102638.18;457544;116;922665;-71
2023/01/12 02:49:19;;;;;;;3.36;1.92;;;;;;;-6.25;64.87;102635.53;462843;114;922556;-70
2023/01/12 02:50:29;;;;;;;4.21;1.69;;;;;;;-6.22;64.97;102639.84;455428;115;922531;-71
2023/01/12 02:51:51;;;;;;;3.48;1.89;;;;;;;-6.22;65.00;102637.19;454280;116;922567;-72
2023/01/12 02:52:57;;;;;;;3.91;1.54;;;;;;;-6.20;65.07;102638.00;454802;116;922502;-72
2023/01/12 02:54:09;;;;;;;3.53;1.75;;;;;;;-6.18;65.02;102629.08;457722;116;922577;-72
2023/01/12 02:55:15;;;;;;;6.31;2.55;;;;;;;-6.15;65.13;102625.42;455694;114;923457;-71
2023/01/12 02:56:25;;;;;;;3.64;1.95;;;;;;;-6.13;65.07;102624.45;455768;116;922911;-72
2023/01/12 02:57:29;;;;;;;3.08;2.17;;;;;;;-6.10;65.09;102631.42;449619;117;922479;-71
2023/01/12 02:58:36;;;;;;;5.12;1.96;;;;;;;-6.07;65.20;102631.31;455745;116;922875;-70
2023/01/12 02:59:44;;;;;;;2.71;1.68;;;;;;;-6.05;65.02;102630.31;454040;115;922645;-71
2023/01/12 03:00:50;;;;;;;6.47;1.84;;;;;;;-6.02;65.12;102627.56;458585;115;922555;-72
2023/01/12 03:02:05;;;;;;;1.83;1.61;;;;;;;-5.98;65.08;102628.30;458651;113;922758;-71
2023/01/12 03:03:10;;;;;;;3.38;1.94;;;;;;;-5.98;64.84;102625.64;458358;115;922793;-72
2023/01/12 03:04:16;;;;;;;5.84;2.11;;;;;;;-5.98;64.84;102628.30;458508;115;922513;-71
2023/01/12 03:05:19;;;;;;;2.89;1.68;;;;;;;-5.97;64.77;102624.73;457003;115;922518;-73
2023/01/12 03:06:23;;;;;;;4.06;1.89;;;;;;;-5.95;64.87;102622.86;456754;116;922595;-71
2023/01/12 03:07:47;;;;;;;2.49;1.88;;;;;;;-5.94;64.86;102617.49;456814;115;922481;-71
2023/01/12 03:08:51;;;;;;;2.89;2.07;;;;;;;-5.92;64.87;102622.75;440907;120;922894;-71
2023/01/12 03:10:03;;;;;;;2.52;1.79;;;;;;;-5.91;64.80;102624.49;448133;118;922546;-73
2023/01/12 03:11:16;;;;;;;2.70;1.93;;;;;;;-5.88;64.83;102627.02;442014;118;922931;-71
2023/01/12 03:12:23;;;;;;;3.56;1.88;;;;;;;-5.89;64.78;102627.93;458013;114;922519;-72
2023/01/12 03:13:29;;;;;;;5.12;2.14;;;;;;;-5.89;64.93;102622.63;455448;116;922557;-71
2023/01/12 03:14:36;;;;;;;3.43;1.95;;;;;;;-5.89;64.90;102625.28;453534;117;922636;-71
2023/01/12 03:15:45;;;;;;;3.79;2.03;;;;;;;-5.89;64.78;102625.28;453479;117;922543;-72
2023/01/12 03:16:50;;;;;;;4.29;1.91;;;;;;;-5.91;64.88;102622.70;447615;115;922509;-73
2023/01/12 03:17:56;;;;;;;2.58;1.62;;;;;;;-5.91;64.96;102621.84;451403;117;922930;-71
2023/01/12 03:19:12;;;;;;;3.27;2.02;;;;;;;-5.91;64.87;102621.84;452307;116;930287;-72
2023/01/12 03:20:27;;;;;;;6.26;2.32;;;;;;;-5.92;65.01;102620.97;456444;114;922601;-73
2023/01/12 03:21:49;;;;;;;3.14;2.42;;;;;;;-5.92;65.00;102622.75;457485;115;922551;-72
2023/01/12 03:22:55;;;;;;;4.33;1.97;;;;;;;-5.92;65.05;102613.00;462397;114;922546;-72
2023/01/12 03:24:11;;;;;;;3.28;2.13;;;;;;;-5.93;65.07;102616.58;449890;118;922561;-72
2023/01/12 03:25:16;;;;;;;4.33;2.24;;;;;;;-5.94;65.18;102614.84;446126;116;922803;-72
2023/01/12 03:26:24;;;;;;;3.82;2.38;;;;;;;-5.94;65.32;102609.53;453867;117;922585;-72
2023/01/12 03:27:42;;;;;;;5.71;2.16;;;;;;;-5.93;65.38;102608.61;456053;115;922567;-72
2023/01/12 03:28:49;;;;;;;3.85;2.06;;;;;;;-5.92;65.47;102612.13;458872;115;922919;-71
2023/01/12 03:29:55;;;;;;;4.38;2.03;;;;;;;-5.92;65.48;102607.69;450701;116;922519;-72
2023/01/12 03:31:09;;;;;;;3.89;2.54;;;;;;;-5.94;65.40;102601.56;454353;115;922557;-71
2023/01/12 03:32:12;;;;;;;2.73;2.16;;;;;;;-5.94;65.38;102608.66;452027;115;922713;-73
2023/01/12 03:33:16;;;;;;;6.61;2.50;;;;;;;-5.94;65.39;102608.66;453124;115;922628;-72
2023/01/12 03:34:20;;;;;;;3.96;3.51;;;;;;;-5.94;65.49;102608.66;448157;118;922782;-72
2023/01/12 03:35:26;;;;;;;30.54;23.22;;;;;;;-5.95;65.53;102610.45;455099;116;922602;-71
2023/01/12 03:36:48;;;;;;;41.49;37.09;;;;;;;-5.95;65.49;102602.48;451380;116;930499;-71
2023/01/12 03:37:54;;;;;;;93.12;62.97;;;;;;;-5.95;65.49;102599.82;441186;120;922680;-72
2023/01/12 03:39:16;;;;;;;96.38;65.76;;;;;;;-5.94;65.58;102604.22;443381;118;922497;-72
2023/01/12 03:40:22;;;;;;;79.96;58.32;;;;;;;-5.93;65.66;102608.61;436237;120;922844;-71
2023/01/12 03:41:31;;;;;;;44.02;34.89;;;;;;;-5.92;65.66;102601.51;444296;119;922523;-72
2023/01/12 03:42:42;;;;;;;118.11;83.08;;;;;;;-5.92;65.79;102607.69;439807;119;922648;-71
2023/01/12 03:43:49;;;;;;;101.52;68.81;;;;;;;-5.91;65.84;102600.59;441300;119;922497;-71
2023/01/12 03:44:55;;;;;;;73.52;52.85;;;;;;;-5.90;65.83;102591.70;449612;117;922549;-72
2023/01/12 03:46:14;;;;;;;74.19;52.74;;;;;;;-5.90;65.80;102594.36;456078;115;922529;-72
2023/01/12 03:47:21;;;;;;;83.26;55.00;;;;;;;-5.91;65.72;102601.45;453341;114;923033;-72
2023/01/12 03:48:30;;;;;;;45.35;36.67;;;;;;;-5.90;65.71;102595.19;454196;115;923073;-72
2023/01/12 03:49:52;;;;;;;103.65;81.14;;;;;;;-5.88;65.69;102594.27;453730;116;922584;-71
2023/01/12 03:51:01;;;;;;;108.99;89.67;;;;;;;-5.88;65.76;102592.48;449816;116;922914;-72
2023/01/12 03:52:07;;;;;;;115.96;89.05;;;;;;;-5.87;65.66;102593.36;455632;115;922314;-71
2023/01/12 03:53:13;;;;;;;135.67;107.94;;;;;;;-5.86;65.81;102587.95;453830;117;922530;-73
2023/01/12 03:54:17;;;;;;;110.99;91.85;;;;;;;-5.84;65.81;102588.73;456024;115;922553;-72
2023/01/12 03:55:22;;;;;;;92.23;74.08;;;;;;;-5.83;65.72;102585.16;453576;115;922571;-72
2023/01/12 03:56:28;;;;;;;107.71;85.12;;;;;;;-5.81;65.62;102585.98;448697;115;922817;-71
2023/01/12 03:57:32;;;;;;;167.44;124.12;;;;;;;-5.79;65.60;102591.24;453651;117;930268;-71
2023/01/12 03:58:36;;;;;;;237.27;160.05;;;;;;;-5.78;65.73;102591.16;453909;114;922442;-72
2023/01/12 03:59:40;;;;;;;231.36;144.13;;;;;;;-5.76;65.56;102594.62;454257;116;922475;-73
2023/01/12 04:00:43;;;;;;;181.63;101.88;;;;;;;-5.72;65.62;102592.70;455508;115;930484;-73
2023/01/12 04:01:47;;;;;;;51.44;30.52;;;;;;;-5.72;65.62;102592.70;454056;116;922501;-71
2023/01/12 04:02:54;;;;;;;15.94;11.88;;;;;;;-5.70;65.54;102580.23;454128;115;923036;-72
2023/01/12 04:03:57;;;;;;;6.56;4.75;;;;;;;-5.68;65.50;102589.02;453365;116;922659;-72
2023/01/12 04:05:00;;;;;;;4.79;3.29;;;;;;;-5.68;65.58;102589.02;454267;115;922969;-72
2023/01/12 04:06:04;;;;;;;3.78;2.65;;;;;;;-5.68;65.42;102584.54;457641;115;922489;-71
2023/01/12 04:07:07;;;;;;;3.29;2.55;;;;;;;-5.68;65.35;102579.23;457352;116;923032;-72
2023/01/12 04:08:12;;;;;;;3.79;3.00;;;;;;;-5.68;65.30;102567.77;456863;115;930559;-72
2023/01/12 04:09:15;;;;;;;2.99;2.17;;;;;;;-5.68;65.33;102573.08;456876;115;922514;-71
2023/01/12 04:10:18;;;;;;;5.78;2.66;;;;;;;-5.69;65.23;102571.34;455830;116;922523;-72
2023/01/12 04:12:42;;;;;;;3.43;1.92;;;;;;;-5.74;65.09;102579.50;453850;115;922578;-72
2023/01/12 04:13:45;;;;;;;4.12;2.19;;;;;;;-5.77;64.97;102568.11;454079;116;922845;-72
2023/01/12 04:14:49;;;;;;;1.97;1.79;;;;;;;-5.82;64.93;102575.41;454652;116;922532;-73
2023/01/12 04:15:51;;;;;;;2.72;1.90;;;;;;;-5.86;64.92;102569.36;455948;116;923010;-72
2023/01/12 04:16:54;;;;;;;5.21;2.14;;;;;;;-5.89;64.80;102572.16;456808;115;922621;-72
2023/01/12 04:17:57;;;;;;;2.85;1.83;;;;;;;-5.92;64.80;102572.30;458869;115;922590;-72
2023/01/12 04:19:00;;;;;;;1.99;1.86;;;;;;;-5.92;64.82;102577.61;452616;115;923152;-73
2023/01/12 04:20:04;;;;;;;2.37;2.16;;;;;;;-5.95;64.76;102580.36;451087;116;922922;-72
2023/01/12 04:22:41;;;;;;;3.81;2.23;;;;;;;-5.98;64.78;102570.75;450815;115;922615;-73
2023/01/12 04:23:14;;;;;;;1.88;1.73;;;;;;;-5.99;64.94;102574.32;451530;115;930307;-71
2023/01/12 04:23:28;;;;;;;4.73;1.93;;;;;;;-6.01;64.84;102568.19;442546;116;922783;-72
2023/01/12 04:24:31;;;;;;;2.65;1.79;;;;;;;-6.01;64.91;102580.63;457407;116;922509;-72
2023/01/12 04:25:34;;;;;;;2.53;1.80;;;;;;;-6.02;64.96;102573.59;453776;117;922517;-72
2023/01/12 04:26:37;;;;;;;3.01;1.74;;;;;;;-6.02;65.10;102573.59;453887;115;922596;-71
2023/01/12 04:27:42;;;;;;;2.71;1.79;;;;;;;-6.01;64.98;102572.67;451199;115;922497;-71
2023/01/12 04:28:45;;;;;;;2.44;2.15;;;;;;;-6.00;65.11;102574.38;450478;115;922976;-71
2023/01/12 04:29:48;;;;;;;2.25;2.05;;;;;;;-6.00;65.11;102582.34;454626;116;922529;-72
2023/01/12 04:30:51;;;;;;;3.91;2.63;;;;;;;-6.00;65.07;102577.03;455754;115;923002;-71
2023/01/12 04:31:54;;;;;;;2.78;2.51;;;;;;;-6.01;64.94;102572.67;458880;115;922588;-71
2023/01/12 04:32:59;;;;;;;5.22;2.41;;;;;;;-6.01;65.08;102570.02;455878;115;922708;-72
2023/01/12 04:34:02;;;;;;;3.59;2.54;;;;;;;-6.01;65.09;102575.32;458799;115;922500;-72
2023/01/12 04:35:05;;;;;;;3.01;2.01;;;;;;;-6.00;65.12;102574.38;451188;115;923203;-71
2023/01/12 04:36:12;;;;;;;3.21;2.05;;;;;;;-6.00;64.94;102580.55;453807;115;922563;-71
2023/01/12 04:37:15;;;;;;;4.45;2.47;;;;;;;-6.01;64.99;102578.81;462543;114;922567;-72
2023/01/12 04:38:18;;;;;;;2.69;2.26;;;;;;;-6.01;65.08;102573.50;453469;116;922601;-71
2023/01/12 04:39:21;;;;;;;3.48;2.27;;;;;;;-6.00;65.03;102566.41;452050;117;922548;-72
2023/01/12 04:40:25;;;;;;;2.69;2.14;;;;;;;-5.98;65.01;102564.56;453870;116;923441;-71
2023/01/12 04:41:28;;;;;;;5.86;2.02;;;;;;;-5.97;65.14;102563.64;454895;116;922536;-71
2023/01/12 04:43:52;;;;;;;3.00;2.33;;;;;;;-5.96;65.14;102568.03;451687;115;922737;-71
2023/01/12 04:44:55;;;;;;;3.04;2.24;;;;;;;-5.96;65.14;102562.73;452435;116;922897;-72
2023/01/12 04:45:58;;;;;;;2.34;2.12;;;;;;;-5.97;65.01;102561.86;454666;116;922914;-71
2023/01/12 04:47:01;;;;;;;2.43;1.89;;;;;;;-5.97;65.05;102550.37;452950;115;923064;-72
2023/01/12 04:48:10;;;;;;;2.91;2.02;;;;;;;-5.98;64.87;102557.47;454994;115;922484;-72
2023/01/12 04:49:13;;;;;;;3.18;2.19;;;;;;;-5.99;64.96;102562.83;457723;115;922706;-72
2023/01/12 04:50:16;;;;;;;2.09;1.85;;;;;;;-6.01;64.85;102554.08;447902;116;922766;-71
2023/01/12 04:51:19;;;;;;;3.16;1.98;;;;;;;-6.02;64.84;102562.97;455050;116;922676;-72
2023/01/12 04:52:22;;;;;;;3.64;1.95;;;;;;;-6.02;64.82;102560.31;451185;116;922563;-71
2023/01/12 04:53:25;;;;;;;3.96;1.90;;;;;;;-6.04;64.78;102559.49;450012;118;922505;-71
2023/01/12 04:54:28;;;;;;;2.32;2.12;;;;;;;-6.05;64.89;102555.10;450568;116;923004;-71
2023/01/12 04:55:32;;;;;;;2.54;1.86;;;;;;;-6.07;64.85;102552.53;453971;117;922536;-72
2023/01/12 04:56:35;;;;;;;4.41;1.93;;;;;;;-6.08;64.86;102553.45;454151;116;922483;-71
2023/01/12 04:57:38;;;;;;;3.52;2.35;;;;;;;-6.08;64.78;102556.10;459190;115;922507;-71
2023/01/12 04:58:41;;;;;;;3.29;1.96;;;;;;;-6.07;64.91;102554.31;450710;116;922438;-72
2023/01/12 04:59:44;;;;;;;2.22;1.79;;;;;;;-6.07;64.79;102543.70;452147;117;922732;-71
2023/01/12 05:00:47;;;;;;;2.21;1.89;;;;;;;-6.07;64.81;102544.56;449601;117;923031;-72
2023/01/12 05:01:50;;;;;;;2.20;1.69;;;;;;;-6.07;64.71;102549.01;458136;116;923552;-71
2023/01/12 05:02:59;;;;;;;2.62;1.49;;;;;;;-6.07;64.76;102549.88;451539;116;922492;-71
2023/01/12 05:04:02;;;;;;;3.71;1.62;;;;;;;-6.07;64.86;102546.35;452951;117;922567;-72
2023/01/12 05:05:07;;;;;;;2.38;1.74;;;;;;;-6.08;64.72;102548.14;459154;114;923273;-71
2023/01/12 05:06:11;;;;;;;3.37;2.44;;;;;;;-6.08;64.88;102553.45;457802;115;922809;-71
2023/01/12 05:07:14;;;;;;;3.10;2.06;;;;;;;-6.07;64.89;102549.88;451502;115;922837;-72
2023/01/12 05:11:01;;;;;;;2.07;1.58;;;;;;;-6.05;64.82;102544.48;453361;116;922534;-71
2023/01/12 05:12:04;;;;;;;1.86;1.74;;;;;;;-6.05;64.74;102545.34;449632;115;922980;-72
2023/01/12 05:13:07;;;;;;;2.84;1.71;;;;;;;-6.05;64.77;102549.79;444949;116;923007;-73
2023/01/12 05:14:10;;;;;;;3.44;1.86;;;;;;;-6.05;64.84;102548.00;449935;118;922538;-73
2023/01/12 05:15:13;;;;;;;2.71;2.01;;;;;;;-6.06;64.82;102540.09;453322;116;922748;-72
2023/01/12 05:16:17;;;;;;;2.66;1.68;;;;;;;-6.06;64.72;102543.61;457621;116;922847;-71
2023/01/12 05:17:20;;;;;;;4.09;1.78;;;;;;;-6.05;64.89;102536.52;454444;115;922443;-73
2023/01/12 05:18:23;;;;;;;1.85;1.64;;;;;;;-6.04;64.90;102549.73;454324;116;922930;-71
2023/01/12 05:19:26;;;;;;;2.86;2.09;;;;;;;-6.03;64.95;102543.51;455812;116;922496;-73
2023/01/12 05:20:29;;;;;;;3.27;2.03;;;;;;;-6.00;64.93;102543.38;453981;117;923415;-72
2023/01/12 05:21:32;;;;;;;2.39;2.09;;;;;;;-5.99;64.75;102554.86;453997;117;922486;-71